SANU/UAQ METAR and TAF weather

Enter ICAO airport designator
Station Type Date Time Source
SANU METAR 2019/06/13 13:30 UTC NOAA

SANU 131330Z 18006KT 3000 BR OVC040 06/05 Q1014


Station Type Date Time Source
SANU Decoded METAR 2019/06/13 13:30 UTC NOAA

San Juan Aerodrome, Argentina (SANU) 31-34S 068-52W 598M
Jun 13, 2019 - 09:30 AM EDT / 2019.06.13 1330 UTC
Wind: from the S (180 degrees) at 7 MPH (6 KT):0
Visibility: 1 mile(s):0
Sky conditions: overcast
Weather: mist
Temperature: 42 F (6 C)
Dew Point: 41 F (5 C)
Relative Humidity: 93%
Pressure (altimeter): 29.94 in. Hg (1014 hPa)
ob: SANU 131330Z 18006KT 3000 BR OVC040 06/05 Q1014
cycle: 13

Station Type Date Time Source
SANU TAF 2019/06/14 06:04 UTC NOAA

TAF SANU 140500Z 1406/1506 16010KT 9999 FEW030 SCT040 TX11/1420ZTN01/1410Z
BECMG 1411/1412 00000KT 3000 BR FEW030 SCT040
BECMG1420/1422 14010KT 6000 DZ FEW020 SCT030 OVC030

Example: see airport list